sensor_id;sensor_type;location;lat;lon;timestamp;temperature;humidity
17687;DHT22;8962;52.538;13.266;2023-06-01T00:02:03;16.80;99.90
17687;DHT22;8962;52.538;13.266;2023-06-01T00:04:30;16.80;99.90
17687;DHT22;8962;52.538;13.266;2023-06-01T00:06:57;16.70;99.90
17687;DHT22;8962;52.538;13.266;2023-06-01T00:09:27;16.70;99.90
17687;DHT22;8962;52.538;13.266;2023-06-01T00:11:54;16.60;99.90
17687;DHT22;8962;52.538;13.266;2023-06-01T00:14:21;16.60;99.90
17687;DHT22;8962;52.538;13.266;2023-06-01T00:16:50;16.60;99.90
17687;DHT22;8962;52.538;13.266;2023-06-01T00:19:17;16.50;99.90
17687;DHT22;8962;52.538;13.266;2023-06-01T00:21:46;16.40;99.90
17687;DHT22;8962;52.538;13.266;2023-06-01T00:24:13;16.40;99.90
17687;DHT22;8962;52.538;13.266;2023-06-01T00:26:40;16.30;99.90
17687;DHT22;8962;52.538;13.266;2023-06-01T00:29:07;16.30;99.90
17687;DHT22;8962;52.538;13.266;2023-06-01T00:31:35;16.30;99.90
17687;DHT22;8962;52.538;13.266;2023-06-01T00:34:03;16.20;99.90
17687;DHT22;8962;52.538;13.266;2023-06-01T00:36:30;16.20;99.90
17687;DHT22;8962;52.538;13.266;2023-06-01T00:38:58;16.20;99.90
17687;DHT22;8962;52.538;13.266;2023-06-01T00:41:30;16.20;99.90
17687;DHT22;8962;52.538;13.266;2023-06-01T00:43:58;16.20;99.90
17687;DHT22;8962;52.538;13.266;2023-06-01T00:46:25;16.20;99.90
17687;DHT22;8962;52.538;13.266;2023-06-01T00:48:53;16.20;99.90
17687;DHT22;8962;52.538;13.266;2023-06-01T00:51:22;16.10;99.90
17687;DHT22;8962;52.538;13.266;2023-06-01T00:53:50;16.10;99.90
17687;DHT22;8962;52.538;13.266;2023-06-01T00:56:17;16.00;99.90
17687;DHT22;8962;52.538;13.266;2023-06-01T00:58:44;16.00;99.90
17687;DHT22;8962;52.538;13.266;2023-06-01T01:01:12;15.90;99.90
17687;DHT22;8962;52.538;13.266;2023-06-01T01:03:46;15.90;99.90
17687;DHT22;8962;52.538;13.266;2023-06-01T01:06:24;15.90;99.90
17687;DHT22;8962;52.538;13.266;2023-06-01T01:09:05;15.90;99.90
17687;DHT22;8962;52.538;13.266;2023-06-01T01:11:37;15.80;99.90
17687;DHT22;8962;52.538;13.266;2023-06-01T01:14:16;15.80;99.90
17687;DHT22;8962;52.538;13.266;2023-06-01T01:16:48;15.70;99.90
17687;DHT22;8962;52.538;13.266;2023-06-01T01:19:29;15.70;99.90
17687;DHT22;8962;52.538;13.266;2023-06-01T01:22:10;15.70;99.90
17687;DHT22;8962;52.538;13.266;2023-06-01T01:24:50;15.60;99.90
17687;DHT22;8962;52.538;13.266;2023-06-01T01:27:29;15.50;99.90
17687;DHT22;8962;52.538;13.266;2023-06-01T01:30:06;15.50;99.90
17687;DHT22;8962;52.538;13.266;2023-06-01T01:32:35;15.40;99.90
17687;DHT22;8962;52.538;13.266;2023-06-01T01:35:04;15.30;99.90
17687;DHT22;8962;52.538;13.266;2023-06-01T01:37:33;15.30;99.90
17687;DHT22;8962;52.538;13.266;2023-06-01T01:40:00;15.20;99.90
17687;DHT22;8962;52.538;13.266;2023-06-01T01:42:27;15.10;99.90
17687;DHT22;8962;52.538;13.266;2023-06-01T01:44:55;15.00;99.90
17687;DHT22;8962;52.538;13.266;2023-06-01T01:47:30;15.00;99.90
17687;DHT22;8962;52.538;13.266;2023-06-01T01:50:01;15.00;99.90
17687;DHT22;8962;52.538;13.266;2023-06-01T01:52:33;14.90;99.90
17687;DHT22;8962;52.538;13.266;2023-06-01T01:55:01;14.80;99.90
17687;DHT22;8962;52.538;13.266;2023-06-01T01:57:30;14.70;99.90
17687;DHT22;8962;52.538;13.266;2023-06-01T01:59:58;14.70;99.90
17687;DHT22;8962;52.538;13.266;2023-06-01T02:02:27;14.60;99.90
17687;DHT22;8962;52.538;13.266;2023-06-01T02:04:55;14.50;99.90
17687;DHT22;8962;52.538;13.266;2023-06-01T02:07:22;14.50;99.90
17687;DHT22;8962;52.538;13.266;2023-06-01T02:09:50;14.40;99.90
17687;DHT22;8962;52.538;13.266;2023-06-01T02:12:17;14.30;99.90
17687;DHT22;8962;52.538;13.266;2023-06-01T02:14:45;14.20;99.90
17687;DHT22;8962;52.538;13.266;2023-06-01T02:17:12;14.20;99.90
17687;DHT22;8962;52.538;13.266;2023-06-01T02:19:42;14.10;99.90
17687;DHT22;8962;52.538;13.266;2023-06-01T02:22:10;14.00;99.90
17687;DHT22;8962;52.538;13.266;2023-06-01T02:24:37;13.90;99.90
17687;DHT22;8962;52.538;13.266;2023-06-01T02:27:04;13.90;99.90
17687;DHT22;8962;52.538;13.266;2023-06-01T02:29:33;13.80;99.90
17687;DHT22;8962;52.538;13.266;2023-06-01T02:32:00;13.80;99.90
17687;DHT22;8962;52.538;13.266;2023-06-01T02:34:27;13.70;99.90
17687;DHT22;8962;52.538;13.266;2023-06-01T02:36:55;13.60;99.90
17687;DHT22;8962;52.538;13.266;2023-06-01T02:39:23;13.60;99.90
17687;DHT22;8962;52.538;13.266;2023-06-01T02:41:50;13.60;99.90
17687;DHT22;8962;52.538;13.266;2023-06-01T02:44:18;13.50;99.90
17687;DHT22;8962;52.538;13.266;2023-06-01T02:46:45;13.50;99.90
17687;DHT22;8962;52.538;13.266;2023-06-01T02:49:12;13.50;99.90
17687;DHT22;8962;52.538;13.266;2023-06-01T02:51:41;13.50;99.90
17687;DHT22;8962;52.538;13.266;2023-06-01T02:54:28;13.50;99.90
17687;DHT22;8962;52.538;13.266;2023-06-01T02:56:57;13.50;99.90
17687;DHT22;8962;52.538;13.266;2023-06-01T02:59:38;13.40;99.90
17687;DHT22;8962;52.538;13.266;2023-06-01T03:02:05;13.40;99.90
17687;DHT22;8962;52.538;13.266;2023-06-01T03:04:33;13.40;99.90
17687;DHT22;8962;52.538;13.266;2023-06-01T03:07:01;13.30;99.90
17687;DHT22;8962;52.538;13.266;2023-06-01T03:09:58;13.30;99.90
17687;DHT22;8962;52.538;13.266;2023-06-01T03:12:47;13.20;99.90
17687;DHT22;8962;52.538;13.266;2023-06-01T03:15:14;13.20;99.90
17687;DHT22;8962;52.538;13.266;2023-06-01T03:17:41;13.10;99.90
17687;DHT22;8962;52.538;13.266;2023-06-01T03:20:09;13.10;99.90
17687;DHT22;8962;52.538;13.266;2023-06-01T03:22:41;13.10;99.90
17687;DHT22;8962;52.538;13.266;2023-06-01T03:25:18;13.00;99.90
17687;DHT22;8962;52.538;13.266;2023-06-01T03:27:48;12.90;99.90
17687;DHT22;8962;52.538;13.266;2023-06-01T03:30:15;12.90;99.90
17687;DHT22;8962;52.538;13.266;2023-06-01T03:32:43;12.90;99.90
17687;DHT22;8962;52.538;13.266;2023-06-01T03:35:12;12.80;99.90
17687;DHT22;8962;52.538;13.266;2023-06-01T03:37:44;12.80;99.90
17687;DHT22;8962;52.538;13.266;2023-06-01T03:40:15;12.80;99.90
17687;DHT22;8962;52.538;13.266;2023-06-01T03:42:45;12.80;99.90
17687;DHT22;8962;52.538;13.266;2023-06-01T03:45:14;12.80;99.90
17687;DHT22;8962;52.538;13.266;2023-06-01T03:47:42;12.80;99.90
17687;DHT22;8962;52.538;13.266;2023-06-01T03:50:10;12.70;99.90
17687;DHT22;8962;52.538;13.266;2023-06-01T03:52:37;12.70;99.90
17687;DHT22;8962;52.538;13.266;2023-06-01T03:55:06;12.60;99.90
17687;DHT22;8962;52.538;13.266;2023-06-01T03:58:04;12.60;99.90
17687;DHT22;8962;52.538;13.266;2023-06-01T04:00:33;12.60;99.90
17687;DHT22;8962;52.538;13.266;2023-06-01T04:03:03;12.70;99.90
17687;DHT22;8962;52.538;13.266;2023-06-01T04:05:33;12.70;99.90
17687;DHT22;8962;52.538;13.266;2023-06-01T04:08:02;12.70;99.90
17687;DHT22;8962;52.538;13.266;2023-06-01T04:10:30;12.70;99.90
17687;DHT22;8962;52.538;13.266;2023-06-01T04:12:57;12.80;99.90
17687;DHT22;8962;52.538;13.266;2023-06-01T04:15:29;12.80;99.90
17687;DHT22;8962;52.538;13.266;2023-06-01T04:17:57;12.80;99.90
17687;DHT22;8962;52.538;13.266;2023-06-01T04:20:25;12.90;99.90
17687;DHT22;8962;52.538;13.266;2023-06-01T04:22:52;12.80;99.90
17687;DHT22;8962;52.538;13.266;2023-06-01T04:25:19;12.70;99.90
17687;DHT22;8962;52.538;13.266;2023-06-01T04:27:49;12.50;99.90
17687;DHT22;8962;52.538;13.266;2023-06-01T04:30:17;12.40;99.90
17687;DHT22;8962;52.538;13.266;2023-06-01T04:32:47;12.30;99.90
17687;DHT22;8962;52.538;13.266;2023-06-01T04:35:14;12.20;99.90
17687;DHT22;8962;52.538;13.266;2023-06-01T04:37:42;12.10;99.90
17687;DHT22;8962;52.538;13.266;2023-06-01T04:40:11;12.20;99.90
17687;DHT22;8962;52.538;13.266;2023-06-01T04:42:41;12.20;99.90
17687;DHT22;8962;52.538;13.266;2023-06-01T04:45:09;12.20;99.90
17687;DHT22;8962;52.538;13.266;2023-06-01T04:47:39;12.10;99.90
17687;DHT22;8962;52.538;13.266;2023-06-01T04:50:15;12.10;99.90
17687;DHT22;8962;52.538;13.266;2023-06-01T04:52:44;12.20;99.90
17687;DHT22;8962;52.538;13.266;2023-06-01T04:55:11;12.30;99.90
17687;DHT22;8962;52.538;13.266;2023-06-01T04:57:45;12.30;99.90
17687;DHT22;8962;52.538;13.266;2023-06-01T05:00:14;12.20;99.90
17687;DHT22;8962;52.538;13.266;2023-06-01T05:02:45;12.20;99.90
17687;DHT22;8962;52.538;13.266;2023-06-01T05:05:16;12.20;99.90
17687;DHT22;8962;52.538;13.266;2023-06-01T05:07:45;12.10;99.90
17687;DHT22;8962;52.538;13.266;2023-06-01T05:10:16;12.00;99.90
17687;DHT22;8962;52.538;13.266;2023-06-01T05:12:45;12.10;99.90
17687;DHT22;8962;52.538;13.266;2023-06-01T05:15:14;12.20;99.90
17687;DHT22;8962;52.538;13.266;2023-06-01T05:17:42;12.30;99.90
17687;DHT22;8962;52.538;13.266;2023-06-01T05:20:12;12.40;99.90
17687;DHT22;8962;52.538;13.266;2023-06-01T05:22:43;12.40;99.90
17687;DHT22;8962;52.538;13.266;2023-06-01T05:25:11;12.40;99.90
17687;DHT22;8962;52.538;13.266;2023-06-01T05:27:38;12.40;99.90
17687;DHT22;8962;52.538;13.266;2023-06-01T05:30:06;12.50;99.90
17687;DHT22;8962;52.538;13.266;2023-06-01T05:32:34;12.50;99.90
17687;DHT22;8962;52.538;13.266;2023-06-01T05:35:09;12.50;99.90
17687;DHT22;8962;52.538;13.266;2023-06-01T05:37:36;12.60;99.90
17687;DHT22;8962;52.538;13.266;2023-06-01T05:40:07;12.70;99.90
17687;DHT22;8962;52.538;13.266;2023-06-01T05:42:35;12.80;99.90
17687;DHT22;8962;52.538;13.266;2023-06-01T05:45:03;12.80;99.90
17687;DHT22;8962;52.538;13.266;2023-06-01T05:47:31;12.80;99.90
17687;DHT22;8962;52.538;13.266;2023-06-01T05:49:58;12.80;99.90
17687;DHT22;8962;52.538;13.266;2023-06-01T05:52:26;12.80;99.90
17687;DHT22;8962;52.538;13.266;2023-06-01T05:54:53;12.80;99.90
17687;DHT22;8962;52.538;13.266;2023-06-01T05:57:22;12.90;99.90
17687;DHT22;8962;52.538;13.266;2023-06-01T05:59:49;12.80;99.90
17687;DHT22;8962;52.538;13.266;2023-06-01T06:02:19;12.70;99.90
17687;DHT22;8962;52.538;13.266;2023-06-01T06:04:46;12.80;99.90
17687;DHT22;8962;52.538;13.266;2023-06-01T06:07:13;13.00;99.90
17687;DHT22;8962;52.538;13.266;2023-06-01T06:09:40;13.20;99.90
17687;DHT22;8962;52.538;13.266;2023-06-01T06:12:08;13.30;99.90
17687;DHT22;8962;52.538;13.266;2023-06-01T06:14:36;13.40;99.90
17687;DHT22;8962;52.538;13.266;2023-06-01T06:17:04;13.40;99.90
17687;DHT22;8962;52.538;13.266;2023-06-01T06:19:32;13.50;99.90
17687;DHT22;8962;52.538;13.266;2023-06-01T06:21:59;13.50;99.90
17687;DHT22;8962;52.538;13.266;2023-06-01T06:24:26;13.50;99.90
17687;DHT22;8962;52.538;13.266;2023-06-01T06:26:53;13.40;99.90
17687;DHT22;8962;52.538;13.266;2023-06-01T06:29:23;13.30;99.90
17687;DHT22;8962;52.538;13.266;2023-06-01T06:31:51;13.30;99.90
17687;DHT22;8962;52.538;13.266;2023-06-01T06:34:18;13.30;99.90
17687;DHT22;8962;52.538;13.266;2023-06-01T06:36:46;13.20;99.90
17687;DHT22;8962;52.538;13.266;2023-06-01T06:39:13;13.30;99.90
17687;DHT22;8962;52.538;13.266;2023-06-01T06:41:41;13.20;99.90
17687;DHT22;8962;52.538;13.266;2023-06-01T06:44:08;13.30;99.90
17687;DHT22;8962;52.538;13.266;2023-06-01T06:46:36;13.20;99.90
17687;DHT22;8962;52.538;13.266;2023-06-01T06:49:05;13.30;99.90
17687;DHT22;8962;52.538;13.266;2023-06-01T06:51:32;13.30;99.90
17687;DHT22;8962;52.538;13.266;2023-06-01T06:54:01;13.50;99.90
17687;DHT22;8962;52.538;13.266;2023-06-01T06:56:31;14.00;99.90
17687;DHT22;8962;52.538;13.266;2023-06-01T06:58:59;14.00;99.90
17687;DHT22;8962;52.538;13.266;2023-06-01T07:01:26;14.00;99.90
17687;DHT22;8962;52.538;13.266;2023-06-01T07:03:53;14.10;99.90
17687;DHT22;8962;52.538;13.266;2023-06-01T07:06:22;14.40;99.90
17687;DHT22;8962;52.538;13.266;2023-06-01T07:08:51;14.50;99.90
17687;DHT22;8962;52.538;13.266;2023-06-01T07:11:18;14.70;99.90
17687;DHT22;8962;52.538;13.266;2023-06-01T07:13:46;14.80;99.90
17687;DHT22;8962;52.538;13.266;2023-06-01T07:16:13;14.70;99.90
17687;DHT22;8962;52.538;13.266;2023-06-01T07:18:40;14.80;99.90
17687;DHT22;8962;52.538;13.266;2023-06-01T07:21:07;14.80;99.90
17687;DHT22;8962;52.538;13.266;2023-06-01T07:23:36;14.80;99.90
17687;DHT22;8962;52.538;13.266;2023-06-01T07:29:31;15.30;99.90
17687;DHT22;8962;52.538;13.266;2023-06-01T07:31:59;15.00;99.90
17687;DHT22;8962;52.538;13.266;2023-06-01T07:34:26;14.90;99.90
17687;DHT22;8962;52.538;13.266;2023-06-01T07:36:54;15.00;99.90
17687;DHT22;8962;52.538;13.266;2023-06-01T07:39:26;15.20;99.90
17687;DHT22;8962;52.538;13.266;2023-06-01T07:41:53;15.30;99.90
17687;DHT22;8962;52.538;13.266;2023-06-01T07:44:20;15.20;99.90
17687;DHT22;8962;52.538;13.266;2023-06-01T07:46:48;15.20;99.90
17687;DHT22;8962;52.538;13.266;2023-06-01T07:49:16;15.20;99.90
17687;DHT22;8962;52.538;13.266;2023-06-01T07:51:44;15.10;99.90
17687;DHT22;8962;52.538;13.266;2023-06-01T07:54:12;15.10;99.90
17687;DHT22;8962;52.538;13.266;2023-06-01T07:56:40;15.10;99.90
17687;DHT22;8962;52.538;13.266;2023-06-01T07:59:10;15.20;99.90
17687;DHT22;8962;52.538;13.266;2023-06-01T08:01:37;15.30;99.90
17687;DHT22;8962;52.538;13.266;2023-06-01T08:04:06;15.30;99.90
17687;DHT22;8962;52.538;13.266;2023-06-01T08:06:34;15.20;99.90
17687;DHT22;8962;52.538;13.266;2023-06-01T08:09:04;15.50;99.90
17687;DHT22;8962;52.538;13.266;2023-06-01T08:11:31;15.70;99.90
17687;DHT22;8962;52.538;13.266;2023-06-01T08:14:00;16.10;99.90
17687;DHT22;8962;52.538;13.266;2023-06-01T08:16:29;16.20;99.90
17687;DHT22;8962;52.538;13.266;2023-06-01T08:18:56;16.50;99.90
17687;DHT22;8962;52.538;13.266;2023-06-01T08:21:25;16.70;99.90
17687;DHT22;8962;52.538;13.266;2023-06-01T08:23:53;16.60;99.90
17687;DHT22;8962;52.538;13.266;2023-06-01T08:26:22;16.60;99.90
17687;DHT22;8962;52.538;13.266;2023-06-01T08:28:49;16.60;99.90
17687;DHT22;8962;52.538;13.266;2023-06-01T08:31:21;16.80;99.90
17687;DHT22;8962;52.538;13.266;2023-06-01T08:33:49;16.90;99.90
17687;DHT22;8962;52.538;13.266;2023-06-01T08:36:17;17.10;99.90
17687;DHT22;8962;52.538;13.266;2023-06-01T08:38:45;17.00;99.90
17687;DHT22;8962;52.538;13.266;2023-06-01T08:41:17;16.90;99.90
17687;DHT22;8962;52.538;13.266;2023-06-01T08:43:54;16.90;99.90
17687;DHT22;8962;52.538;13.266;2023-06-01T08:46:25;17.20;99.90
17687;DHT22;8962;52.538;13.266;2023-06-01T08:48:53;17.40;99.90
17687;DHT22;8962;52.538;13.266;2023-06-01T08:51:24;17.50;99.90
17687;DHT22;8962;52.538;13.266;2023-06-01T08:53:53;17.40;99.90
17687;DHT22;8962;52.538;13.266;2023-06-01T08:56:21;17.40;99.90
17687;DHT22;8962;52.538;13.266;2023-06-01T08:58:49;17.40;99.90
17687;DHT22;8962;52.538;13.266;2023-06-01T09:01:18;17.40;99.90
17687;DHT22;8962;52.538;13.266;2023-06-01T09:03:48;17.30;99.90
17687;DHT22;8962;52.538;13.266;2023-06-01T09:06:16;17.20;99.90
17687;DHT22;8962;52.538;13.266;2023-06-01T09:08:44;17.30;99.90
17687;DHT22;8962;52.538;13.266;2023-06-01T09:11:11;17.40;99.90
17687;DHT22;8962;52.538;13.266;2023-06-01T09:13:40;17.80;99.90
17687;DHT22;8962;52.538;13.266;2023-06-01T09:16:08;17.80;99.90
17687;DHT22;8962;52.538;13.266;2023-06-01T09:18:36;17.60;99.90
17687;DHT22;8962;52.538;13.266;2023-06-01T09:21:14;17.60;99.90
17687;DHT22;8962;52.538;13.266;2023-06-01T09:23:42;17.80;99.90
17687;DHT22;8962;52.538;13.266;2023-06-01T09:26:10;18.00;99.90
17687;DHT22;8962;52.538;13.266;2023-06-01T09:28:58;18.30;99.90
17687;DHT22;8962;52.538;13.266;2023-06-01T09:31:37;18.00;99.90
17687;DHT22;8962;52.538;13.266;2023-06-01T09:34:05;17.80;99.90
17687;DHT22;8962;52.538;13.266;2023-06-01T09:36:36;17.80;99.90
17687;DHT22;8962;52.538;13.266;2023-06-01T09:39:04;18.00;99.90
17687;DHT22;8962;52.538;13.266;2023-06-01T09:41:49;18.30;99.90
17687;DHT22;8962;52.538;13.266;2023-06-01T09:44:23;18.30;99.90
17687;DHT22;8962;52.538;13.266;2023-06-01T09:46:52;18.50;99.90
17687;DHT22;8962;52.538;13.266;2023-06-01T09:49:21;18.60;99.90
17687;DHT22;8962;52.538;13.266;2023-06-01T09:51:52;18.80;99.90
17687;DHT22;8962;52.538;13.266;2023-06-01T09:54:24;18.90;99.90
17687;DHT22;8962;52.538;13.266;2023-06-01T09:56:52;19.00;99.90
17687;DHT22;8962;52.538;13.266;2023-06-01T09:59:20;18.70;99.90
17687;DHT22;8962;52.538;13.266;2023-06-01T10:01:50;19.00;99.90
17687;DHT22;8962;52.538;13.266;2023-06-01T10:04:21;19.00;99.90
17687;DHT22;8962;52.538;13.266;2023-06-01T10:06:51;19.20;99.90
17687;DHT22;8962;52.538;13.266;2023-06-01T10:09:18;19.00;99.90
17687;DHT22;8962;52.538;13.266;2023-06-01T10:11:47;18.90;99.90
17687;DHT22;8962;52.538;13.266;2023-06-01T10:14:15;19.10;99.90
17687;DHT22;8962;52.538;13.266;2023-06-01T10:16:43;19.00;99.90
17687;DHT22;8962;52.538;13.266;2023-06-01T10:19:12;19.10;99.90
17687;DHT22;8962;52.538;13.266;2023-06-01T10:21:39;19.30;99.90
17687;DHT22;8962;52.538;13.266;2023-06-01T10:24:09;19.50;99.90
17687;DHT22;8962;52.538;13.266;2023-06-01T10:26:42;19.40;99.90
17687;DHT22;8962;52.538;13.266;2023-06-01T10:29:10;19.40;99.90
17687;DHT22;8962;52.538;13.266;2023-06-01T10:31:39;19.40;99.90
17687;DHT22;8962;52.538;13.266;2023-06-01T10:34:08;19.30;99.90
17687;DHT22;8962;52.538;13.266;2023-06-01T10:37:13;19.20;99.90
17687;DHT22;8962;52.538;13.266;2023-06-01T10:39:42;19.30;99.90
17687;DHT22;8962;52.538;13.266;2023-06-01T10:42:34;19.40;99.90
17687;DHT22;8962;52.538;13.266;2023-06-01T10:45:01;19.80;99.90
17687;DHT22;8962;52.538;13.266;2023-06-01T10:47:45;19.80;99.90
17687;DHT22;8962;52.538;13.266;2023-06-01T10:50:17;20.00;99.90
17687;DHT22;8962;52.538;13.266;2023-06-01T10:52:44;20.10;99.90
17687;DHT22;8962;52.538;13.266;2023-06-01T10:55:26;20.00;99.90
17687;DHT22;8962;52.538;13.266;2023-06-01T10:58:21;20.00;99.90
17687;DHT22;8962;52.538;13.266;2023-06-01T11:00:50;20.00;99.90
17687;DHT22;8962;52.538;13.266;2023-06-01T11:03:42;20.00;99.90
17687;DHT22;8962;52.538;13.266;2023-06-01T11:06:23;20.00;99.90
17687;DHT22;8962;52.538;13.266;2023-06-01T11:09:03;20.00;99.90
17687;DHT22;8962;52.538;13.266;2023-06-01T11:12:00;20.20;99.90
17687;DHT22;8962;52.538;13.266;2023-06-01T11:14:30;20.30;99.90
17687;DHT22;8962;52.538;13.266;2023-06-01T11:17:27;20.30;99.90
17687;DHT22;8962;52.538;13.266;2023-06-01T11:19:59;20.40;99.90
17687;DHT22;8962;52.538;13.266;2023-06-01T11:22:35;20.50;99.90
17687;DHT22;8962;52.538;13.266;2023-06-01T11:25:04;20.70;99.90
17687;DHT22;8962;52.538;13.266;2023-06-01T11:27:35;20.70;99.90
17687;DHT22;8962;52.538;13.266;2023-06-01T11:30:04;20.80;99.90
17687;DHT22;8962;52.538;13.266;2023-06-01T11:32:32;21.00;99.90
17687;DHT22;8962;52.538;13.266;2023-06-01T11:35:16;21.90;99.90
17687;DHT22;8962;52.538;13.266;2023-06-01T11:37:43;23.10;99.90
17687;DHT22;8962;52.538;13.266;2023-06-01T11:40:13;24.30;99.90
17687;DHT22;8962;52.538;13.266;2023-06-01T11:42:42;25.10;98.20
17687;DHT22;8962;52.538;13.266;2023-06-01T11:45:14;25.20;95.40
17687;DHT22;8962;52.538;13.266;2023-06-01T11:47:42;25.20;95.10
17687;DHT22;8962;52.538;13.266;2023-06-01T11:50:20;26.00;93.20
17687;DHT22;8962;52.538;13.266;2023-06-01T11:52:47;26.70;90.20
17687;DHT22;8962;52.538;13.266;2023-06-01T11:55:15;27.00;84.10
17687;DHT22;8962;52.538;13.266;2023-06-01T11:57:44;27.00;80.90
17687;DHT22;8962;52.538;13.266;2023-06-01T12:00:12;27.40;78.00
17687;DHT22;8962;52.538;13.266;2023-06-01T12:02:39;27.20;76.90
17687;DHT22;8962;52.538;13.266;2023-06-01T12:05:08;27.40;72.40
17687;DHT22;8962;52.538;13.266;2023-06-01T12:07:43;27.20;70.30
17687;DHT22;8962;52.538;13.266;2023-06-01T12:10:11;26.90;71.20
17687;DHT22;8962;52.538;13.266;2023-06-01T12:12:40;27.40;68.00
17687;DHT22;8962;52.538;13.266;2023-06-01T12:15:11;28.10;63.70
17687;DHT22;8962;52.538;13.266;2023-06-01T12:17:49;28.70;60.20
17687;DHT22;8962;52.538;13.266;2023-06-01T12:20:28;27.70;60.20
17687;DHT22;8962;52.538;13.266;2023-06-01T12:22:55;27.10;62.10
17687;DHT22;8962;52.538;13.266;2023-06-01T12:25:23;27.40;62.50
17687;DHT22;8962;52.538;13.266;2023-06-01T12:28:05;28.20;59.30
17687;DHT22;8962;52.538;13.266;2023-06-01T12:30:34;28.00;57.90
17687;DHT22;8962;52.538;13.266;2023-06-01T12:33:02;28.10;57.40
17687;DHT22;8962;52.538;13.266;2023-06-01T12:35:30;27.70;57.80
17687;DHT22;8962;52.538;13.266;2023-06-01T12:38:03;28.50;55.40
17687;DHT22;8962;52.538;13.266;2023-06-01T12:40:32;29.30;53.40
17687;DHT22;8962;52.538;13.266;2023-06-01T12:43:00;29.00;52.30
17687;DHT22;8962;52.538;13.266;2023-06-01T12:45:36;28.80;52.10
17687;DHT22;8962;52.538;13.266;2023-06-01T12:48:04;28.90;52.30
17687;DHT22;8962;52.538;13.266;2023-06-01T12:50:31;29.50;51.40
17687;DHT22;8962;52.538;13.266;2023-06-01T12:52:58;30.20;46.30
17687;DHT22;8962;52.538;13.266;2023-06-01T12:55:26;30.50;44.90
17687;DHT22;8962;52.538;13.266;2023-06-01T12:57:53;30.40;45.00
17687;DHT22;8962;52.538;13.266;2023-06-01T13:00:21;30.10;44.70
17687;DHT22;8962;52.538;13.266;2023-06-01T13:02:49;30.20;43.60
17687;DHT22;8962;52.538;13.266;2023-06-01T13:05:17;30.30;43.40
17687;DHT22;8962;52.538;13.266;2023-06-01T13:07:45;30.60;41.90
17687;DHT22;8962;52.538;13.266;2023-06-01T13:10:13;30.30;42.10
17687;DHT22;8962;52.538;13.266;2023-06-01T13:12:41;30.00;42.40
17687;DHT22;8962;52.538;13.266;2023-06-01T13:15:09;30.40;41.20
17687;DHT22;8962;52.538;13.266;2023-06-01T13:17:37;30.30;40.00
17687;DHT22;8962;52.538;13.266;2023-06-01T13:20:07;30.30;39.70
17687;DHT22;8962;52.538;13.266;2023-06-01T13:22:36;30.60;39.50
17687;DHT22;8962;52.538;13.266;2023-06-01T13:25:04;30.60;37.30
17687;DHT22;8962;52.538;13.266;2023-06-01T13:27:32;30.50;36.20
17687;DHT22;8962;52.538;13.266;2023-06-01T13:29:59;30.70;36.00
17687;DHT22;8962;52.538;13.266;2023-06-01T13:32:28;30.60;36.90
17687;DHT22;8962;52.538;13.266;2023-06-01T13:34:55;31.30;33.60
17687;DHT22;8962;52.538;13.266;2023-06-01T13:37:24;30.80;34.70
17687;DHT22;8962;52.538;13.266;2023-06-01T13:39:54;30.20;36.30
17687;DHT22;8962;52.538;13.266;2023-06-01T13:42:21;29.90;36.30
17687;DHT22;8962;52.538;13.266;2023-06-01T13:44:48;30.10;36.30
17687;DHT22;8962;52.538;13.266;2023-06-01T13:47:15;29.80;35.90
17687;DHT22;8962;52.538;13.266;2023-06-01T13:49:43;30.40;36.00
17687;DHT22;8962;52.538;13.266;2023-06-01T13:52:10;31.10;33.80
17687;DHT22;8962;52.538;13.266;2023-06-01T13:54:39;31.10;33.80
17687;DHT22;8962;52.538;13.266;2023-06-01T13:57:07;31.40;32.50
17687;DHT22;8962;52.538;13.266;2023-06-01T13:59:35;31.90;31.40
17687;DHT22;8962;52.538;13.266;2023-06-01T14:02:02;31.80;31.20
17687;DHT22;8962;52.538;13.266;2023-06-01T14:04:30;32.30;30.40
17687;DHT22;8962;52.538;13.266;2023-06-01T14:06:57;32.40;29.80
17687;DHT22;8962;52.538;13.266;2023-06-01T14:09:25;32.70;29.50
17687;DHT22;8962;52.538;13.266;2023-06-01T14:11:53;32.70;29.00
17687;DHT22;8962;52.538;13.266;2023-06-01T14:14:20;32.30;28.50
17687;DHT22;8962;52.538;13.266;2023-06-01T14:16:48;31.50;28.70
17687;DHT22;8962;52.538;13.266;2023-06-01T14:19:15;31.80;29.20
17687;DHT22;8962;52.538;13.266;2023-06-01T14:21:42;31.70;29.60
17687;DHT22;8962;52.538;13.266;2023-06-01T14:24:09;31.70;29.80
17687;DHT22;8962;52.538;13.266;2023-06-01T14:26:36;31.80;29.80
17687;DHT22;8962;52.538;13.266;2023-06-01T14:29:04;31.80;30.10
17687;DHT22;8962;52.538;13.266;2023-06-01T14:31:32;31.30;30.90
17687;DHT22;8962;52.538;13.266;2023-06-01T14:33:59;31.10;31.30
17687;DHT22;8962;52.538;13.266;2023-06-01T14:36:26;31.50;30.40
17687;DHT22;8962;52.538;13.266;2023-06-01T14:38:53;31.90;29.20
17687;DHT22;8962;52.538;13.266;2023-06-01T14:41:20;31.80;28.60
17687;DHT22;8962;52.538;13.266;2023-06-01T14:43:47;32.60;28.10
17687;DHT22;8962;52.538;13.266;2023-06-01T14:46:17;32.80;27.00
17687;DHT22;8962;52.538;13.266;2023-06-01T14:48:46;33.00;27.30
17687;DHT22;8962;52.538;13.266;2023-06-01T14:51:13;32.90;27.50
17687;DHT22;8962;52.538;13.266;2023-06-01T14:53:40;32.70;27.60
17687;DHT22;8962;52.538;13.266;2023-06-01T14:56:08;31.60;28.80
17687;DHT22;8962;52.538;13.266;2023-06-01T14:58:35;31.00;30.00
17687;DHT22;8962;52.538;13.266;2023-06-01T15:01:02;31.10;30.00
17687;DHT22;8962;52.538;13.266;2023-06-01T15:03:31;31.10;29.30
17687;DHT22;8962;52.538;13.266;2023-06-01T15:05:58;31.60;29.30
17687;DHT22;8962;52.538;13.266;2023-06-01T15:08:25;31.50;28.80
17687;DHT22;8962;52.538;13.266;2023-06-01T15:10:54;32.00;28.50
17687;DHT22;8962;52.538;13.266;2023-06-01T15:13:21;31.70;28.90
17687;DHT22;8962;52.538;13.266;2023-06-01T15:15:48;31.80;29.00
17687;DHT22;8962;52.538;13.266;2023-06-01T15:18:16;32.40;28.50
17687;DHT22;8962;52.538;13.266;2023-06-01T15:20:44;31.80;28.80
17687;DHT22;8962;52.538;13.266;2023-06-01T15:23:11;31.90;28.80
17687;DHT22;8962;52.538;13.266;2023-06-01T15:25:38;32.00;28.60
17687;DHT22;8962;52.538;13.266;2023-06-01T15:28:05;32.30;28.10
17687;DHT22;8962;52.538;13.266;2023-06-01T15:30:33;33.30;27.10
17687;DHT22;8962;52.538;13.266;2023-06-01T15:33:01;33.80;26.30
17687;DHT22;8962;52.538;13.266;2023-06-01T15:35:28;33.50;26.20
17687;DHT22;8962;52.538;13.266;2023-06-01T15:37:56;33.50;26.30
17687;DHT22;8962;52.538;13.266;2023-06-01T15:40:23;31.90;27.00
17687;DHT22;8962;52.538;13.266;2023-06-01T15:42:52;32.10;26.80
17687;DHT22;8962;52.538;13.266;2023-06-01T15:45:19;32.30;26.70
17687;DHT22;8962;52.538;13.266;2023-06-01T15:47:46;32.30;26.30
17687;DHT22;8962;52.538;13.266;2023-06-01T15:50:13;32.00;26.60